createdAt,value
2019-01-19T00:00:00.905Z,51
2019-01-19T00:05:00.351Z,46
2019-01-19T00:10:00.348Z,48
2019-01-19T00:15:00.310Z,39
2019-01-19T00:20:00.329Z,42
2019-01-19T00:25:00.395Z,46
2019-01-19T00:30:00.761Z,46
2019-01-19T00:35:00.520Z,46
2019-01-19T00:40:00.374Z,48
2019-01-19T00:45:00.175Z,53
2019-01-19T00:50:00.342Z,46
2019-01-19T00:55:00.356Z,45
2019-01-19T01:00:00.642Z,42
2019-01-19T01:05:00.283Z,43
2019-01-19T01:10:00.348Z,54
2019-01-19T01:15:00.273Z,55
2019-01-19T01:20:00.306Z,49
2019-01-19T01:25:00.802Z,44
2019-01-19T01:30:00.499Z,49
2019-01-19T01:35:00.440Z,51
2019-01-19T01:40:00.418Z,48
2019-01-19T01:45:00.455Z,44
2019-01-19T01:50:00.280Z,44
2019-01-19T01:54:59.980Z,39
2019-01-19T02:00:00.231Z,53
2019-01-19T02:05:00.205Z,51
2019-01-19T02:10:00.266Z,52
2019-01-19T02:15:00.246Z,53
2019-01-19T02:20:00.253Z,53
2019-01-19T02:25:00.323Z,57
2019-01-19T02:30:00.443Z,55
2019-01-19T02:35:00.018Z,52
2019-01-19T02:40:00.054Z,55
2019-01-19T02:45:00.468Z,41
2019-01-19T02:50:00.240Z,52
2019-01-19T02:55:00.242Z,52
2019-01-19T03:00:00.302Z,52
2019-01-19T03:04:59.984Z,48
2019-01-19T03:09:59.968Z,53
2019-01-19T03:15:00.249Z,49
2019-01-19T03:20:00.294Z,55
2019-01-19T03:24:59.928Z,51
2019-01-19T03:29:59.791Z,60
2019-01-19T03:34:59.983Z,54
2019-01-19T03:39:59.985Z,52
2019-01-19T03:44:59.958Z,43
2019-01-19T03:51:22.093Z,52
2019-01-19T03:54:59.944Z,40
2019-01-19T04:00:00.131Z,53
2019-01-19T04:04:59.711Z,55
2019-01-19T04:10:00.027Z,55
2019-01-19T04:14:59.791Z,50
2019-01-19T04:20:00.032Z,55
2019-01-19T04:24:59.774Z,49
2019-01-19T04:29:59.882Z,52
2019-01-19T04:34:59.773Z,46
2019-01-19T04:39:59.927Z,47
2019-01-19T04:44:59.796Z,45
2019-01-19T04:49:59.920Z,44
2019-01-19T04:54:59.947Z,47
2019-01-19T05:00:00.531Z,40
2019-01-19T05:04:59.798Z,40
2019-01-19T05:09:59.669Z,42
2019-01-19T05:15:00.223Z,32
2019-01-19T05:19:59.829Z,48
2019-01-19T05:24:59.786Z,45
2019-01-19T05:29:59.833Z,42
2019-01-19T05:34:59.857Z,32
2019-01-19T05:39:59.748Z,44
2019-01-19T05:44:59.907Z,40
2019-01-19T05:49:59.822Z,39
2019-01-19T05:54:59.539Z,37
2019-01-19T05:59:59.974Z,35
2019-01-19T06:04:59.773Z,36
2019-01-19T06:09:59.737Z,41
2019-01-19T06:14:59.749Z,37
2019-01-19T06:20:24.992Z,40
2019-01-19T06:24:59.671Z,43
2019-01-19T06:29:59.803Z,50
2019-01-19T06:34:59.628Z,38
2019-01-19T06:39:59.739Z,37
2019-01-19T06:44:59.851Z,41
2019-01-19T06:49:59.725Z,30
2019-01-19T06:54:59.674Z,36
2019-01-19T06:59:59.627Z,42
2019-01-19T07:04:59.492Z,37
2019-01-19T07:09:59.693Z,34
2019-01-19T07:14:59.669Z,39
2019-01-19T07:19:59.588Z,41
2019-01-19T07:24:59.679Z,40
2019-01-19T07:29:59.813Z,44
2019-01-19T07:34:59.758Z,41
2019-01-19T07:39:59.747Z,36
2019-01-19T07:44:59.622Z,44
2019-01-19T07:49:59.456Z,43
2019-01-19T07:54:59.568Z,37
2019-01-19T07:59:59.819Z,37
2019-01-19T08:04:59.625Z,43
2019-01-19T08:09:59.631Z,39
2019-01-19T08:14:59.466Z,42
2019-01-19T08:19:59.616Z,35
2019-01-19T08:24:59.349Z,40
2019-01-19T08:29:59.589Z,41
2019-01-19T08:34:59.386Z,39
2019-01-19T08:39:59.350Z,41
2019-01-19T08:44:59.490Z,37
2019-01-19T08:49:59.669Z,35
2019-01-19T08:54:59.679Z,35
2019-01-19T08:59:59.466Z,48
2019-01-19T09:04:59.342Z,44
2019-01-19T09:09:59.320Z,40
2019-01-19T09:14:59.634Z,45
2019-01-19T09:19:59.491Z,40
2019-01-19T09:24:59.281Z,42
2019-01-19T09:29:59.447Z,38
2019-01-19T09:34:59.294Z,40
2019-01-19T09:39:59.374Z,44
2019-01-19T09:44:59.588Z,38
2019-01-19T09:49:59.335Z,41
2019-01-19T09:54:59.560Z,41
2019-01-19T09:59:59.310Z,45
2019-01-19T10:04:59.487Z,38
2019-01-19T10:09:59.202Z,41
2019-01-19T10:14:59.207Z,26
2019-01-19T10:19:59.396Z,38
2019-01-19T10:24:59.151Z,43
2019-01-19T10:29:59.515Z,42
2019-01-19T10:34:59.486Z,34
2019-01-19T10:39:59.218Z,46
2019-01-19T10:44:59.642Z,37
2019-01-19T10:49:59.407Z,49
2019-01-19T10:54:59.370Z,39
2019-01-19T10:59:59.406Z,40
2019-01-19T11:04:59.340Z,39
2019-01-19T11:09:59.137Z,47
2019-01-19T11:14:59.391Z,39
2019-01-19T11:19:59.303Z,47
2019-01-19T11:24:59.392Z,32
2019-01-19T11:29:59.176Z,40
2019-01-19T11:34:59.123Z,39
2019-01-19T11:39:59.406Z,45
2019-01-19T11:44:59.153Z,36
2019-01-19T11:49:59.446Z,43
2019-01-19T11:54:59.278Z,36
2019-01-19T11:59:59.254Z,36
2019-01-19T12:04:59.111Z,41
2019-01-19T12:09:59.273Z,38
2019-01-19T12:14:59.060Z,34
2019-01-19T12:19:59.461Z,37
2019-01-19T12:24:59.399Z,30
2019-01-19T12:29:59.261Z,38
2019-01-19T12:34:59.324Z,38
2019-01-19T12:39:59.139Z,36
2019-01-19T12:44:59.059Z,42
2019-01-19T12:49:59.179Z,32
2019-01-19T12:54:59.217Z,40
2019-01-19T12:59:59.373Z,35
2019-01-19T13:04:59.291Z,31
2019-01-19T13:09:59.195Z,34
2019-01-19T13:14:58.940Z,27
2019-01-19T13:20:25.369Z,34
2019-01-19T13:24:59.082Z,30
2019-01-19T13:29:59.169Z,33
2019-01-19T13:34:59.015Z,33
2019-01-19T13:39:59.026Z,33
2019-01-19T13:44:59.082Z,31
2019-01-19T13:49:58.938Z,32
2019-01-19T13:54:59.028Z,30
2019-01-19T13:59:59.073Z,29
2019-01-19T14:04:59.306Z,26
2019-01-19T14:09:58.962Z,30
2019-01-19T14:14:59.035Z,25
2019-01-19T14:19:58.987Z,32
2019-01-19T14:24:59.162Z,27
2019-01-19T14:29:58.940Z,33
2019-01-19T14:34:58.890Z,32
2019-01-19T14:39:59.087Z,30
2019-01-19T14:44:59.239Z,31
2019-01-19T14:49:59.425Z,32
2019-01-19T14:54:59.723Z,29
2019-01-19T14:59:59.390Z,31
2019-01-19T15:04:59.061Z,27
2019-01-19T15:09:59.268Z,30
2019-01-19T15:14:59.577Z,31
2019-01-19T15:19:59.043Z,32
2019-01-19T15:24:59.152Z,30
2019-01-19T15:29:59.008Z,27
2019-01-19T15:34:58.979Z,30
2019-01-19T15:39:59.182Z,30
2019-01-19T15:44:59.183Z,30
2019-01-19T15:49:59.109Z,24
2019-01-19T15:54:59.139Z,26
2019-01-19T15:59:59.004Z,26
2019-01-19T16:04:59.041Z,31
2019-01-19T16:09:59.180Z,27
2019-01-19T16:14:59.350Z,29
2019-01-19T16:19:59.369Z,29
2019-01-19T16:26:47.713Z,35
2019-01-19T16:29:58.662Z,23
2019-01-19T16:34:59.406Z,25
2019-01-19T16:40:20.490Z,32
2019-01-19T16:44:58.740Z,30
2019-01-19T16:49:59.145Z,25
2019-01-19T16:54:59.193Z,27
2019-01-19T16:59:59.670Z,26
2019-01-19T17:04:59.178Z,33
2019-01-19T17:09:58.901Z,34
2019-01-19T17:14:58.605Z,36
2019-01-19T17:19:59.016Z,36
2019-01-19T17:24:58.883Z,26
2019-01-19T17:29:59.074Z,27
2019-01-19T17:34:59.009Z,34
2019-01-19T17:39:58.755Z,28
2019-01-19T17:44:59.046Z,32
2019-01-19T17:49:58.781Z,36
2019-01-19T17:54:58.630Z,29
2019-01-19T17:59:59.758Z,26
2019-01-19T18:04:59.152Z,36
2019-01-19T18:09:58.975Z,33
2019-01-19T18:14:59.366Z,24
2019-01-19T18:19:58.784Z,28
2019-01-19T18:24:58.910Z,34
2019-01-19T18:29:58.995Z,25
2019-01-19T18:34:58.846Z,36
2019-01-19T18:39:58.837Z,29
2019-01-19T18:44:58.979Z,39
2019-01-19T18:51:34.225Z,35
2019-01-19T18:54:58.629Z,30
2019-01-19T18:59:58.771Z,32
2019-01-19T19:04:58.646Z,38
2019-01-19T19:10:02.231Z,35
2019-01-19T19:14:58.910Z,31
2019-01-19T19:19:58.724Z,32
2019-01-19T19:24:58.811Z,29
2019-01-19T19:29:58.633Z,29
2019-01-19T19:34:58.829Z,34
2019-01-19T19:39:59.317Z,34
2019-01-19T19:44:58.811Z,34
2019-01-19T19:49:58.962Z,31
2019-01-19T19:54:58.639Z,34
2019-01-19T19:59:58.955Z,32
2019-01-19T20:04:58.771Z,32
2019-01-19T20:09:58.678Z,27
2019-01-19T20:14:58.587Z,24
2019-01-19T20:19:59.483Z,33
2019-01-19T20:24:58.997Z,30
2019-01-19T20:29:59.226Z,31
2019-01-19T20:34:58.687Z,29
2019-01-19T20:39:58.843Z,29
2019-01-19T20:44:58.772Z,36
2019-01-19T20:49:59.110Z,30
2019-01-19T20:54:58.899Z,35
2019-01-19T20:59:58.401Z,29
2019-01-19T21:04:59.315Z,26
2019-01-19T21:09:58.271Z,29
2019-01-19T21:14:58.711Z,33
2019-01-19T21:19:59.164Z,35
2019-01-19T21:24:58.589Z,33
2019-01-19T21:29:58.965Z,35
2019-01-19T21:34:58.477Z,34
2019-01-19T21:39:58.936Z,34
2019-01-19T21:44:58.548Z,27
2019-01-19T21:49:58.887Z,26
2019-01-19T21:54:58.501Z,27
2019-01-19T21:59:58.436Z,30
2019-01-19T22:04:58.812Z,25
2019-01-19T22:09:58.763Z,25
2019-01-19T22:14:58.390Z,33
2019-01-19T22:19:58.798Z,31
2019-01-19T22:24:58.406Z,29
2019-01-19T22:29:58.500Z,22
2019-01-19T22:34:58.783Z,30
2019-01-19T22:39:59.079Z,28
2019-01-19T22:44:58.278Z,30
2019-01-19T22:49:58.505Z,24
2019-01-19T22:54:58.738Z,34
2019-01-19T22:59:59.016Z,28
2019-01-19T23:04:58.231Z,31
2019-01-19T23:09:58.972Z,26
2019-01-19T23:14:58.913Z,23
2019-01-19T23:19:58.652Z,31
2019-01-19T23:24:58.704Z,27
2019-01-19T23:29:58.435Z,28
2019-01-19T23:34:58.372Z,26
2019-01-19T23:39:58.780Z,26
2019-01-19T23:44:59.150Z,28
2019-01-19T23:49:58.831Z,28
2019-01-19T23:54:58.662Z,34
2019-01-19T23:59:58.710Z,31
